createdAt,value
2022-09-12T00:01:55.768Z,84.92
2022-09-12T00:04:22.679Z,84.54
2022-09-12T00:06:49.573Z,84.87
2022-09-12T00:09:16.580Z,84.90
2022-09-12T00:11:45.768Z,84.66
2022-09-12T00:14:15.680Z,84.92
2022-09-12T00:16:42.666Z,84.59
2022-09-12T00:19:10.429Z,84.69
2022-09-12T00:21:38.923Z,84.70
2022-09-12T00:24:06.186Z,84.55
2022-09-12T00:26:33.093Z,85.21
2022-09-12T00:29:00.122Z,85.17
2022-09-12T00:31:27.275Z,85.24
2022-09-12T00:33:56.637Z,85.00
2022-09-12T00:36:25.018Z,84.57
2022-09-12T00:38:52.571Z,84.38
2022-09-12T00:41:39.576Z,84.55
2022-09-12T00:44:12.536Z,83.82
2022-09-12T00:46:41.913Z,83.84
2022-09-12T00:49:31.779Z,83.95
2022-09-12T00:52:32.900Z,83.95
2022-09-12T00:55:11.080Z,83.95
2022-09-12T00:57:45.472Z,82.68
2022-09-12T01:00:15.815Z,81.94
2022-09-12T01:02:53.015Z,81.63
2022-09-12T01:05:20.884Z,81.63
2022-09-12T01:07:50.097Z,81.53
2022-09-12T01:10:17.695Z,81.24
2022-09-12T01:12:44.802Z,81.43
2022-09-12T01:15:12.073Z,80.40
2022-09-12T01:18:08.150Z,80.74
2022-09-12T01:21:05.937Z,81.09
2022-09-12T01:23:51.234Z,80.63
2022-09-12T01:26:48.641Z,79.87
2022-09-12T01:29:43.485Z,79.24
2022-09-12T01:32:10.320Z,79.34
2022-09-12T01:35:16.763Z,79.22
2022-09-12T01:38:17.098Z,79.33
2022-09-12T01:41:13.318Z,79.01
2022-09-12T01:44:06.851Z,79.10
2022-09-12T01:46:44.927Z,79.01
2022-09-12T01:49:22.734Z,79.81
2022-09-12T01:52:18.497Z,80.32
2022-09-12T01:54:51.683Z,80.79
2022-09-12T01:57:27.770Z,81.32
2022-09-12T01:59:57.714Z,81.40
2022-09-12T02:02:33.331Z,81.33
2022-09-12T02:05:10.740Z,81.19
2022-09-12T02:07:40.330Z,81.35
2022-09-12T02:10:13.634Z,81.21
2022-09-12T02:12:46.761Z,81.68
2022-09-12T02:15:15.491Z,81.98
2022-09-12T02:17:44.583Z,81.90
2022-09-12T02:20:46.815Z,81.76
2022-09-12T02:23:17.754Z,82.31
2022-09-12T02:25:47.050Z,82.34
2022-09-12T02:28:34.824Z,82.62
2022-09-12T02:31:28.538Z,82.51
2022-09-12T02:33:55.296Z,82.61
2022-09-12T02:36:34.730Z,82.42
2022-09-12T02:39:01.677Z,82.58
2022-09-12T02:41:28.622Z,82.79
2022-09-12T02:43:55.890Z,82.86
2022-09-12T02:46:27.883Z,83.79
2022-09-12T02:48:55.469Z,84.11
2022-09-12T02:51:23.850Z,84.45
2022-09-12T02:53:51.115Z,84.90
2022-09-12T02:56:24.876Z,85.11
2022-09-12T02:58:52.125Z,85.36
2022-09-12T03:01:43.673Z,85.78
2022-09-12T03:04:31.920Z,85.98
2022-09-12T03:07:10.312Z,86.15
2022-09-12T03:09:45.681Z,86.32
2022-09-12T03:12:34.416Z,86.45
2022-09-12T03:15:27.310Z,86.81
2022-09-12T03:18:02.208Z,86.46
2022-09-12T03:20:58.156Z,86.81
2022-09-12T03:23:46.634Z,86.96
2022-09-12T03:26:17.214Z,86.80
2022-09-12T03:28:45.493Z,86.61
2022-09-12T03:31:14.871Z,86.50
2022-09-12T03:33:41.981Z,86.23
2022-09-12T03:36:20.190Z,85.84
2022-09-12T03:38:47.088Z,85.88
2022-09-12T03:41:14.234Z,85.41
2022-09-12T03:43:41.227Z,85.15
2022-09-12T03:46:08.416Z,84.91
2022-09-12T03:48:35.722Z,84.37
2022-09-12T03:51:07.591Z,83.83
2022-09-12T03:53:34.482Z,84.19
2022-09-12T03:56:06.289Z,83.97
2022-09-12T03:58:33.930Z,83.97
2022-09-12T04:01:00.811Z,83.99
2022-09-12T04:03:27.702Z,84.18
2022-09-12T04:05:57.345Z,84.38
2022-09-12T04:08:24.203Z,83.98
2022-09-12T04:10:50.982Z,84.44
2022-09-12T04:13:17.782Z,84.31
2022-09-12T04:15:44.562Z,84.49
2022-09-12T04:18:11.640Z,84.58
2022-09-12T04:20:40.252Z,84.92
2022-09-12T04:23:07.412Z,84.96
2022-09-12T04:25:34.494Z,84.67
2022-09-12T04:28:01.599Z,84.50
2022-09-12T04:30:28.506Z,84.48
2022-09-12T04:32:55.409Z,84.47
2022-09-12T04:35:22.252Z,84.65
2022-09-12T04:37:49.222Z,84.34
2022-09-12T04:40:16.106Z,84.36
2022-09-12T04:42:42.890Z,84.41
2022-09-12T04:45:10.003Z,84.28
2022-09-12T04:47:36.896Z,84.31
2022-09-12T04:50:04.250Z,83.81
2022-09-12T04:52:31.165Z,83.59
2022-09-12T04:54:58.025Z,83.35
2022-09-12T04:57:25.927Z,82.40
2022-09-12T04:59:52.859Z,82.13
2022-09-12T05:02:19.774Z,80.03
2022-09-12T05:04:46.961Z,78.29
2022-09-12T05:07:13.787Z,78.54
2022-09-12T05:09:41.627Z,77.87
2022-09-12T05:12:09.465Z,76.79
2022-09-12T05:14:36.403Z,76.22
2022-09-12T05:17:04.356Z,71.87
2022-09-12T05:19:31.922Z,70.17
2022-09-12T05:21:59.626Z,69.56
2022-09-12T05:24:26.461Z,68.70
2022-09-12T05:26:53.402Z,68.62
2022-09-12T05:29:20.329Z,68.91
2022-09-12T05:31:52.285Z,69.98
2022-09-12T05:34:20.064Z,70.73
2022-09-12T05:36:46.993Z,70.35
2022-09-12T05:39:13.878Z,70.82
2022-09-12T05:41:40.885Z,70.95
2022-09-12T05:44:12.009Z,71.37
2022-09-12T05:46:41.856Z,71.58
2022-09-12T05:49:11.459Z,70.11
2022-09-12T05:51:41.459Z,70.38
2022-09-12T05:54:10.792Z,70.23
2022-09-12T05:56:39.815Z,70.27
2022-09-12T05:59:12.405Z,69.82
2022-09-12T06:01:39.963Z,69.17
2022-09-12T06:04:07.907Z,68.75
2022-09-12T06:06:45.023Z,68.95
2022-09-12T06:09:13.838Z,68.30
2022-09-12T06:11:41.246Z,67.81
2022-09-12T06:14:10.017Z,67.68
2022-09-12T06:16:37.785Z,67.09
2022-09-12T06:19:08.285Z,66.79
2022-09-12T06:21:39.994Z,66.62
2022-09-12T06:24:07.673Z,66.55
2022-09-12T06:26:34.691Z,66.83
2022-09-12T06:29:02.316Z,66.09
2022-09-12T06:31:32.057Z,65.74
2022-09-12T06:34:01.748Z,65.37
2022-09-12T06:36:33.731Z,64.36
2022-09-12T06:39:10.980Z,64.19
2022-09-12T06:41:42.969Z,64.38
2022-09-12T06:44:21.669Z,64.43
2022-09-12T06:46:49.155Z,63.31
2022-09-12T06:49:17.635Z,63.09
2022-09-12T06:51:44.723Z,63.76
2022-09-12T06:54:15.694Z,63.96
2022-09-12T06:56:43.053Z,63.67
2022-09-12T06:59:10.079Z,63.15
2022-09-12T07:01:37.175Z,64.02
2022-09-12T07:04:04.569Z,63.53
2022-09-12T07:06:36.495Z,63.31
2022-09-12T07:09:05.569Z,62.79
2022-09-12T07:11:34.466Z,62.94
2022-09-12T07:14:03.114Z,62.70
2022-09-12T07:16:30.551Z,61.28
2022-09-12T07:18:59.608Z,62.01
2022-09-12T07:21:27.392Z,61.25
2022-09-12T07:23:58.083Z,61.43
2022-09-12T07:26:29.711Z,60.75
2022-09-12T07:29:25.115Z,60.01
2022-09-12T07:31:48.292Z,60.21
2022-09-12T07:34:15.232Z,59.96
2022-09-12T07:36:42.034Z,59.59
2022-09-12T07:39:09.699Z,58.70
2022-09-12T07:41:36.594Z,59.42
2022-09-12T07:44:06.632Z,59.00
2022-09-12T07:46:33.894Z,58.29
2022-09-12T07:49:01.553Z,58.52
2022-09-12T07:51:30.000Z,58.75
2022-09-12T07:53:57.325Z,58.51
2022-09-12T07:56:30.151Z,58.84
2022-09-12T07:58:58.775Z,60.79
2022-09-12T08:01:26.102Z,58.51
2022-09-12T08:03:57.971Z,57.62
2022-09-12T08:06:26.540Z,57.13
2022-09-12T08:08:55.878Z,56.94
2022-09-12T08:11:23.990Z,57.40
2022-09-12T08:13:55.429Z,56.51
2022-09-12T08:16:24.330Z,59.08
2022-09-12T08:18:51.311Z,57.95
2022-09-12T08:21:21.340Z,57.42
2022-09-12T08:23:52.748Z,57.46
2022-09-12T08:28:46.830Z,56.22
2022-09-12T08:31:15.947Z,57.11
2022-09-12T08:33:43.051Z,56.05
2022-09-12T08:36:14.191Z,55.36
2022-09-12T08:38:43.021Z,55.25
2022-09-12T08:41:18.869Z,55.18
2022-09-12T08:43:57.920Z,55.62
2022-09-12T08:46:31.659Z,55.68
2022-09-12T08:49:01.300Z,55.19
2022-09-12T08:51:29.416Z,54.97
2022-09-12T08:53:57.441Z,55.17
2022-09-12T08:56:31.461Z,54.57
2022-09-12T08:58:59.361Z,54.24
2022-09-12T09:01:45.744Z,54.72
2022-09-12T09:04:33.308Z,53.25
2022-09-12T09:07:06.197Z,52.92
2022-09-12T09:10:27.242Z,53.13
2022-09-12T09:13:06.522Z,52.21
2022-09-12T09:15:40.705Z,51.30
2022-09-12T09:18:12.004Z,50.85
2022-09-12T09:20:41.902Z,51.17
2022-09-12T09:23:17.347Z,52.02
2022-09-12T09:26:16.080Z,51.14
2022-09-12T09:28:47.430Z,50.64
2022-09-12T09:31:19.398Z,50.17
2022-09-12T09:33:48.338Z,49.87
2022-09-12T09:36:28.849Z,48.81
2022-09-12T09:39:11.652Z,48.11
2022-09-12T09:41:59.968Z,48.99
2022-09-12T09:44:29.613Z,49.89
2022-09-12T09:46:59.953Z,48.84
2022-09-12T09:49:32.308Z,49.57
2022-09-12T09:52:01.010Z,48.73
2022-09-12T09:54:38.080Z,48.47
2022-09-12T09:57:05.193Z,47.25
2022-09-12T09:59:36.266Z,46.85
2022-09-12T10:02:15.009Z,46.44
2022-09-12T10:04:53.913Z,45.81
2022-09-12T10:07:21.867Z,45.52
2022-09-12T10:10:16.076Z,45.31
2022-09-12T10:12:43.105Z,44.87
2022-09-12T10:15:30.582Z,46.61
2022-09-12T10:17:58.901Z,47.14
2022-09-12T10:20:34.884Z,46.54
2022-09-12T10:23:37.731Z,47.28
2022-09-12T10:26:10.572Z,46.35
2022-09-12T10:28:39.378Z,47.12
2022-09-12T10:31:07.724Z,48.25
2022-09-12T10:33:42.551Z,48.27
2022-09-12T10:36:09.549Z,49.24
2022-09-12T10:38:36.843Z,48.17
2022-09-12T10:41:06.787Z,48.06
2022-09-12T10:43:33.589Z,49.15
2022-09-12T10:46:15.963Z,47.52
2022-09-12T10:48:47.613Z,47.62
2022-09-12T10:51:23.709Z,46.74
2022-09-12T10:54:02.498Z,46.96
2022-09-12T10:56:35.215Z,48.29
2022-09-12T10:59:30.223Z,46.97
2022-09-12T11:02:01.989Z,48.36
2022-09-12T11:04:37.703Z,48.81
2022-09-12T11:07:22.873Z,48.93
2022-09-12T11:10:14.815Z,49.75
2022-09-12T11:12:51.568Z,49.92
2022-09-12T11:15:37.058Z,50.98
2022-09-12T11:18:34.926Z,50.74
2022-09-12T11:21:19.073Z,52.33
2022-09-12T11:24:23.267Z,54.01
2022-09-12T11:27:21.578Z,55.26
2022-09-12T11:29:49.575Z,55.44
2022-09-12T11:32:31.888Z,56.71
2022-09-12T11:35:15.179Z,56.62
2022-09-12T11:37:55.291Z,57.75
2022-09-12T11:40:50.256Z,58.61
2022-09-12T11:43:29.219Z,58.45
2022-09-12T11:45:57.601Z,57.52
2022-09-12T11:48:48.991Z,57.47
2022-09-12T11:51:28.012Z,56.92
2022-09-12T11:54:02.035Z,57.42
2022-09-12T11:56:28.857Z,56.24
2022-09-12T11:59:10.005Z,55.38
2022-09-12T12:01:43.954Z,55.26
2022-09-12T12:04:18.215Z,54.07
2022-09-12T12:07:01.082Z,52.72
2022-09-12T12:09:27.826Z,52.78
2022-09-12T12:11:57.896Z,51.32
2022-09-12T12:14:29.620Z,51.12
2022-09-12T12:16:57.209Z,50.98
2022-09-12T12:19:34.303Z,49.02
2022-09-12T12:22:17.371Z,48.13
2022-09-12T12:25:13.351Z,47.60
2022-09-12T12:27:59.137Z,47.38
2022-09-12T12:30:33.442Z,46.32
2022-09-12T12:33:01.140Z,46.13
2022-09-12T12:36:04.435Z,43.91
2022-09-12T12:38:43.292Z,43.62
2022-09-12T12:41:19.415Z,43.49
2022-09-12T12:43:48.227Z,42.12
2022-09-12T12:46:17.094Z,42.73
2022-09-12T12:49:10.389Z,41.50
2022-09-12T12:51:53.613Z,42.36
2022-09-12T12:54:27.701Z,41.77
2022-09-12T12:57:29.880Z,41.63
2022-09-12T13:00:05.186Z,42.68
2022-09-12T13:02:41.829Z,43.26
2022-09-12T13:05:28.249Z,43.10
2022-09-12T13:08:07.057Z,42.71
2022-09-12T13:10:34.584Z,43.07
2022-09-12T13:13:05.238Z,43.26
2022-09-12T13:15:38.289Z,43.35
2022-09-12T13:18:11.727Z,42.95
2022-09-12T13:20:47.404Z,43.98
2022-09-12T13:23:25.765Z,44.22
2022-09-12T13:25:55.137Z,44.13
2022-09-12T13:28:22.099Z,44.82
2022-09-12T13:30:59.011Z,45.57
2022-09-12T13:33:52.327Z,45.85
2022-09-12T13:36:48.601Z,45.58
2022-09-12T13:39:18.398Z,45.98
2022-09-12T13:41:52.676Z,46.21
2022-09-12T13:44:21.948Z,45.63
2022-09-12T13:46:49.270Z,45.98
2022-09-12T13:49:32.899Z,45.29
2022-09-12T13:52:15.508Z,45.11
2022-09-12T13:54:48.027Z,43.52
2022-09-12T13:57:41.430Z,44.39
2022-09-12T14:00:16.182Z,43.95
2022-09-12T14:02:43.095Z,43.73
2022-09-12T14:05:27.810Z,43.61
2022-09-12T14:08:00.245Z,43.55
2022-09-12T14:10:34.089Z,42.30
2022-09-12T14:13:03.352Z,43.40
2022-09-12T14:15:32.912Z,43.11
2022-09-12T14:18:01.819Z,42.94
2022-09-12T14:20:36.258Z,43.12
2022-09-12T14:23:07.318Z,42.67
2022-09-12T14:25:41.386Z,42.49
2022-09-12T14:28:13.263Z,42.14
2022-09-12T14:30:40.832Z,41.85
2022-09-12T14:33:10.761Z,42.33
2022-09-12T14:35:43.691Z,42.99
2022-09-12T14:38:19.933Z,42.58
2022-09-12T14:40:48.842Z,42.94
2022-09-12T14:43:26.025Z,43.13
2022-09-12T14:45:59.760Z,43.35
2022-09-12T14:48:28.618Z,43.14
2022-09-12T14:50:55.523Z,43.31
2022-09-12T14:53:37.454Z,43.02
2022-09-12T14:56:10.529Z,43.91
2022-09-12T14:58:41.556Z,44.18
2022-09-12T15:01:08.523Z,43.71
2022-09-12T15:03:52.100Z,43.74
2022-09-12T15:06:30.847Z,44.23
2022-09-12T15:09:14.449Z,43.66
2022-09-12T15:11:41.299Z,43.90
2022-09-12T15:14:14.557Z,44.07
2022-09-12T15:16:41.687Z,43.96
2022-09-12T15:19:08.564Z,44.31
2022-09-12T15:21:35.405Z,44.68
2022-09-12T15:24:02.453Z,44.43
2022-09-12T15:26:31.587Z,43.83
2022-09-12T15:28:58.513Z,44.02
2022-09-12T15:31:27.991Z,43.89
2022-09-12T15:33:55.710Z,44.22
2022-09-12T15:36:23.553Z,44.32
2022-09-12T15:38:51.504Z,44.32
2022-09-12T15:41:23.924Z,44.08
2022-09-12T15:43:51.056Z,44.58
2022-09-12T15:46:19.085Z,44.53
2022-09-12T15:48:46.028Z,44.58
2022-09-12T15:51:15.803Z,44.53
2022-09-12T15:53:43.299Z,44.36
2022-09-12T15:56:10.148Z,44.92
2022-09-12T15:58:49.753Z,45.21
2022-09-12T16:01:24.527Z,45.34
2022-09-12T16:03:51.535Z,45.89
2022-09-12T16:06:18.405Z,46.29
2022-09-12T16:08:45.342Z,46.01
2022-09-12T16:11:30.173Z,46.17
2022-09-12T16:13:56.989Z,46.66
2022-09-12T16:16:24.210Z,45.74
2022-09-12T16:18:51.294Z,46.65
2022-09-12T16:21:18.286Z,46.36
2022-09-12T16:23:46.097Z,46.48
2022-09-12T16:26:13.578Z,46.68
2022-09-12T16:28:41.592Z,46.12
2022-09-12T16:31:18.015Z,46.34
2022-09-12T16:33:45.895Z,46.73
2022-09-12T16:36:16.482Z,46.31
2022-09-12T16:38:46.092Z,46.76
2022-09-12T16:41:13.504Z,47.14
2022-09-12T16:43:43.093Z,47.19
2022-09-12T16:46:17.349Z,47.93
2022-09-12T16:48:51.572Z,47.95
2022-09-12T16:51:21.217Z,48.37
2022-09-12T16:54:08.787Z,48.79
2022-09-12T16:56:39.612Z,48.99
2022-09-12T16:59:07.500Z,49.36
2022-09-12T17:01:35.400Z,49.08
2022-09-12T17:04:03.430Z,49.36
2022-09-12T17:06:33.047Z,49.67
2022-09-12T17:09:03.955Z,50.46
2022-09-12T17:11:33.855Z,51.06
2022-09-12T17:14:06.420Z,51.67
2022-09-12T17:16:35.862Z,52.23
2022-09-12T17:19:02.722Z,52.38
2022-09-12T17:21:29.661Z,52.81
2022-09-12T17:24:18.538Z,52.77
2022-09-12T17:26:53.751Z,54.05
2022-09-12T17:29:21.434Z,54.81
2022-09-12T17:31:48.834Z,55.52
2022-09-12T17:34:16.449Z,55.68
2022-09-12T17:36:44.613Z,56.38
2022-09-12T17:39:14.391Z,56.53
2022-09-12T17:41:42.647Z,56.71
2022-09-12T17:44:11.885Z,57.48
2022-09-12T17:46:39.402Z,58.45
2022-09-12T17:49:12.690Z,58.63
2022-09-12T17:51:40.554Z,59.24
2022-09-12T17:54:18.273Z,59.44
2022-09-12T17:56:50.040Z,60.32
2022-09-12T17:59:22.013Z,61.79
2022-09-12T18:02:31.272Z,62.41
2022-09-12T18:05:00.353Z,62.86
2022-09-12T18:07:27.221Z,62.10
2022-09-12T18:09:54.140Z,61.92
2022-09-12T18:12:21.045Z,61.82
2022-09-12T18:14:47.897Z,62.14
2022-09-12T18:17:14.744Z,62.16
2022-09-12T18:19:41.561Z,60.98
2022-09-12T18:22:09.469Z,59.86
2022-09-12T18:24:36.353Z,60.23
2022-09-12T18:27:03.982Z,58.20
2022-09-12T18:29:31.336Z,59.00
2022-09-12T18:31:58.199Z,59.11
2022-09-12T18:34:25.146Z,59.02
2022-09-12T18:36:54.903Z,58.85
2022-09-12T18:39:25.333Z,58.88
2022-09-12T18:41:54.536Z,58.98
2022-09-12T18:44:21.339Z,59.42
2022-09-12T18:46:48.200Z,59.84
2022-09-12T18:49:15.496Z,60.48
2022-09-12T18:51:42.358Z,60.97
2022-09-12T18:54:13.769Z,61.43
2022-09-12T18:56:43.579Z,62.09
2022-09-12T18:59:12.822Z,62.38
2022-09-12T19:01:39.948Z,62.73
2022-09-12T19:04:08.964Z,63.04
2022-09-12T19:06:38.681Z,63.60
2022-09-12T19:09:08.470Z,63.94
2022-09-12T19:11:39.027Z,64.62
2022-09-12T19:14:07.846Z,65.28
2022-09-12T19:16:35.356Z,65.35
2022-09-12T19:19:03.127Z,65.53
2022-09-12T19:21:31.622Z,65.84
2022-09-12T19:24:06.783Z,65.82
2022-09-12T19:26:35.903Z,65.74
2022-09-12T19:29:04.192Z,65.45
2022-09-12T19:31:33.915Z,65.19
2022-09-12T19:34:03.816Z,64.89
2022-09-12T19:36:47.857Z,64.69
2022-09-12T19:39:17.004Z,64.22
2022-09-12T19:41:45.143Z,63.80
2022-09-12T19:44:12.922Z,64.45
2022-09-12T19:46:40.782Z,65.56
2022-09-12T19:49:07.913Z,66.55
2022-09-12T19:51:34.843Z,66.86
2022-09-12T19:54:01.853Z,66.77
2022-09-12T19:56:29.430Z,66.52
2022-09-12T19:58:56.914Z,66.40
2022-09-12T20:01:28.177Z,66.54
2022-09-12T20:03:56.428Z,66.51
2022-09-12T20:06:24.268Z,66.34
2022-09-12T20:08:51.471Z,66.63
2022-09-12T20:11:20.450Z,66.85
2022-09-12T20:13:49.229Z,66.97
2022-09-12T20:16:23.338Z,66.98
2022-09-12T20:18:56.897Z,67.64
2022-09-12T20:21:31.891Z,67.89
2022-09-12T20:24:03.440Z,68.31
2022-09-12T20:26:30.927Z,68.42
2022-09-12T20:28:57.830Z,68.74
2022-09-12T20:31:25.267Z,68.06
2022-09-12T20:33:52.303Z,68.08
2022-09-12T20:36:21.771Z,67.74
2022-09-12T20:38:53.974Z,68.08
2022-09-12T20:41:21.308Z,67.51
2022-09-12T20:43:52.783Z,67.43
2022-09-12T20:46:22.227Z,67.02
2022-09-12T20:48:50.709Z,66.64
2022-09-12T20:51:20.246Z,66.33
2022-09-12T20:53:48.722Z,66.24
2022-09-12T20:56:15.863Z,66.58
2022-09-12T20:58:44.251Z,66.91
2022-09-12T21:01:13.413Z,67.00
2022-09-12T21:03:41.556Z,67.37
2022-09-12T21:06:09.640Z,67.87
2022-09-12T21:08:37.345Z,70.23
2022-09-12T21:11:04.905Z,69.90
2022-09-12T21:13:32.188Z,69.73
2022-09-12T21:16:04.428Z,70.16
2022-09-12T21:18:31.922Z,70.57
2022-09-12T21:20:58.757Z,70.82
2022-09-12T21:23:26.152Z,70.44
2022-09-12T21:25:53.126Z,70.85
2022-09-12T21:28:20.924Z,70.92
2022-09-12T21:30:48.726Z,70.80
2022-09-12T21:33:15.978Z,72.18
2022-09-12T21:35:42.850Z,72.29
2022-09-12T21:38:09.655Z,71.91
2022-09-12T21:40:36.541Z,71.92
2022-09-12T21:43:04.104Z,72.03
2022-09-12T21:45:30.943Z,71.81
2022-09-12T21:47:57.988Z,71.82
2022-09-12T21:50:24.972Z,71.83
2022-09-12T21:52:53.844Z,71.81
2022-09-12T21:55:20.753Z,71.99
2022-09-12T21:57:47.682Z,72.04
2022-09-12T22:00:18.142Z,72.14
2022-09-12T22:02:46.435Z,73.27
2022-09-12T22:05:13.872Z,74.10
2022-09-12T22:07:40.850Z,73.56
2022-09-12T22:10:08.083Z,73.58
2022-09-12T22:12:34.874Z,73.77
2022-09-12T22:15:12.778Z,74.05
2022-09-12T22:17:48.524Z,73.93
2022-09-12T22:20:15.365Z,74.39
2022-09-12T22:23:00.753Z,74.40
2022-09-12T22:25:27.663Z,74.45
2022-09-12T22:27:55.007Z,74.54
2022-09-12T22:30:22.694Z,74.86
2022-09-12T22:32:51.079Z,74.52
2022-09-12T22:35:19.162Z,74.75
2022-09-12T22:37:46.768Z,74.69
2022-09-12T22:40:14.137Z,74.91
2022-09-12T22:42:40.908Z,74.88
2022-09-12T22:45:08.325Z,75.23
2022-09-12T22:47:35.471Z,75.53
2022-09-12T22:50:02.954Z,75.48
2022-09-12T22:52:29.758Z,75.39
2022-09-12T22:54:57.249Z,75.92
2022-09-12T22:57:24.116Z,75.74
2022-09-12T22:59:50.939Z,75.71
2022-09-12T23:02:17.818Z,75.87
2022-09-12T23:04:46.675Z,75.91
2022-09-12T23:07:13.574Z,75.95
2022-09-12T23:09:40.503Z,76.20
2022-09-12T23:12:07.391Z,76.29
2022-09-12T23:14:34.274Z,76.51
2022-09-12T23:17:01.161Z,76.63
2022-09-12T23:19:28.115Z,77.18
2022-09-12T23:21:54.883Z,77.33
2022-09-12T23:24:24.976Z,77.85
2022-09-12T23:26:51.807Z,79.63
2022-09-12T23:29:18.652Z,80.10
2022-09-12T23:31:45.437Z,80.13
2022-09-12T23:34:12.276Z,80.61
2022-09-12T23:36:39.055Z,80.28
2022-09-12T23:39:06.104Z,80.13
2022-09-12T23:41:33.198Z,79.66
2022-09-12T23:44:00.371Z,79.60
2022-09-12T23:46:27.282Z,79.33
2022-09-12T23:48:54.657Z,79.05
2022-09-12T23:51:24.419Z,78.86
2022-09-12T23:53:51.271Z,79.10
2022-09-12T23:56:18.091Z,79.07
2022-09-12T23:58:44.961Z,79.04
